Time;durP1;ratioP1;P1;durP2;ratioP2;P2;SDS_P1;SDS_P2;PMS_P1;PMS_P2;Temp;Humidity;BMP_temperature;BMP_pressure;BME280_temperature;BME280_humidity;BME280_pressure;Samples;Min_cycle;Max_cycle;Signal;HPM_P1;HPM_P2
2023/03/06 00:00:28;;;;;;;12.55;8.30;;;3.60;1.00;;;;;;5088520;28;20473;-79
2023/03/06 00:02:54;;;;;;;13.80;8.50;;;3.60;1.00;;;;;;5081826;28;20386;-79
2023/03/06 00:05:19;;;;;;;13.90;9.03;;;3.80;1.00;;;;;;5075488;28;20383;-79
2023/03/06 00:07:45;;;;;;;11.77;8.80;;;3.60;1.00;;;;;;5080364;28;20447;-79
2023/03/06 00:10:17;;;;;;;12.57;8.70;;;3.50;1.00;;;;;;5089504;28;20392;-79
2023/03/06 00:12:43;;;;;;;11.43;8.73;;;;;;;;;;5091169;28;20404;-79
2023/03/06 00:15:10;;;;;;;10.90;7.72;;;3.00;1.00;;;;;;5089288;28;20382;-79
2023/03/06 00:17:36;;;;;;;12.48;8.10;;;3.40;1.00;;;;;;5090240;28;20404;-79
2023/03/06 00:20:02;;;;;;;12.50;8.85;;;3.50;1.00;;;;;;5089653;28;20775;-78
2023/03/06 00:22:27;;;;;;;11.07;7.90;;;3.20;1.00;;;;;;5091735;28;20381;-79
2023/03/06 00:24:53;;;;;;;12.07;7.50;;;3.50;1.00;;;;;;5091249;28;20474;-79
2023/03/06 00:27:20;;;;;;;10.80;7.93;;;3.00;1.00;;;;;;5091045;28;20382;-79
2023/03/06 00:29:48;;;;;;;11.52;8.27;;;3.30;1.00;;;;;;5090169;28;20390;-79
2023/03/06 00:32:14;;;;;;;11.88;7.80;;;3.40;1.00;;;;;;5082853;28;20913;-79
2023/03/06 00:34:39;;;;;;;11.63;7.90;;;3.10;1.00;;;;;;5090912;28;20398;-79
2023/03/06 00:37:05;;;;;;;14.07;9.40;;;3.10;1.00;;;;;;5091463;28;20386;-79
2023/03/06 00:39:30;;;;;;;11.70;8.40;;;2.90;1.00;;;;;;5091077;28;20406;-79
2023/03/06 00:41:56;;;;;;;11.17;8.30;;;2.90;1.00;;;;;;5090978;28;20973;-79
2023/03/06 00:44:21;;;;;;;13.10;8.77;;;2.90;1.00;;;;;;5087522;28;20384;-78
2023/03/06 00:46:47;;;;;;;11.33;8.00;;;3.00;1.00;;;;;;5089965;28;20402;-79
2023/03/06 00:49:12;;;;;;;11.93;8.20;;;3.10;1.00;;;;;;5082431;28;20457;-79
2023/03/06 00:51:38;;;;;;;13.57;8.20;;;3.00;1.00;;;;;;5083751;28;20947;-79
2023/03/06 00:54:03;;;;;;;15.32;8.48;;;3.20;1.00;;;;;;5073213;28;20420;-79
2023/03/06 00:56:29;;;;;;;12.35;8.70;;;3.20;1.00;;;;;;5070736;28;20430;-79
2023/03/06 00:58:54;;;;;;;12.02;8.57;;;3.00;1.00;;;;;;5071132;28;20375;-78
2023/03/06 01:01:20;;;;;;;9.55;7.32;;;3.00;1.00;;;;;;5079588;28;20537;-79
2023/03/06 01:03:45;;;;;;;11.38;8.65;;;3.20;1.00;;;;;;5093526;28;20386;-79
2023/03/06 01:06:11;;;;;;;12.05;8.60;;;3.10;1.00;;;;;;5092600;28;20873;-79
2023/03/06 01:08:37;;;;;;;15.30;9.63;;;3.50;1.00;;;;;;5095078;28;20419;-79
2023/03/06 01:11:02;;;;;;;12.27;7.97;;;3.80;1.00;;;;;;5094712;28;20418;-79
2023/03/06 01:13:28;;;;;;;11.73;8.10;;;3.50;1.00;;;;;;5094661;28;20420;-79
2023/03/06 01:15:53;;;;;;;11.35;8.27;;;3.10;1.00;;;;;;5091382;28;20733;-79
2023/03/06 01:18:19;;;;;;;10.13;8.02;;;3.30;1.00;;;;;;5085857;28;20391;-79
2023/03/06 01:20:44;;;;;;;13.38;9.80;;;3.10;1.00;;;;;;5087464;28;20403;-78
2023/03/06 01:23:10;;;;;;;13.18;9.43;;;3.70;1.00;;;;;;5092648;28;20390;-79
2023/03/06 01:25:35;;;;;;;13.50;9.43;;;3.70;1.00;;;;;;5085404;28;20401;-79
2023/03/06 01:28:01;;;;;;;9.37;7.83;;;3.70;1.00;;;;;;5094214;28;20473;-79
2023/03/06 01:30:26;;;;;;;8.90;6.47;;;3.70;1.00;;;;;;5093684;28;20390;-79
2023/03/06 01:32:52;;;;;;;7.33;5.73;;;3.70;99.90;;;;;;5093959;28;20386;-79
2023/03/06 01:35:17;;;;;;;7.73;6.10;;;3.70;99.90;;;;;;5093957;28;21103;-79
2023/03/06 01:37:43;;;;;;;8.07;6.50;;;3.90;1.00;;;;;;5093960;28;20412;-79
2023/03/06 01:40:11;;;;;;;9.30;6.80;;;3.80;99.90;;;;;;5090263;28;20401;-78
2023/03/06 01:42:37;;;;;;;8.23;6.22;;;3.70;99.90;;;;;;5092281;28;20387;-79
2023/03/06 01:45:11;;;;;;;10.80;7.47;;;1.40;99.90;;;;;;5092600;28;20721;-79
2023/03/06 01:47:37;;;;;;;9.10;6.82;;;3.90;99.90;;;;;;5093207;28;20410;-78
2023/03/06 01:50:05;;;;;;;9.15;7.40;;;3.70;1.00;;;;;;5093591;28;20416;-79
2023/03/06 01:52:35;;;;;;;8.35;6.43;;;3.70;47.40;;;;;;5093749;28;20480;-79
2023/03/06 01:55:16;;;;;;;9.98;7.50;;;3.60;1.00;;;;;;5093537;28;20393;-78
2023/03/06 01:57:51;;;;;;;9.80;7.25;;;4.20;1.00;;;;;;5093719;28;20381;-78
2023/03/06 02:00:20;;;;;;;8.80;7.10;;;3.50;1.00;;;;;;5093236;28;20484;-79
2023/03/06 02:03:14;;;;;;;10.10;7.22;;;3.70;1.00;;;;;;5091328;28;20682;-78
2023/03/06 02:05:41;;;;;;;11.75;8.05;;;3.80;1.00;;;;;;5090181;28;20473;-79
2023/03/06 02:08:10;;;;;;;13.20;9.40;;;3.60;1.00;;;;;;5093205;28;20385;-79
2023/03/06 02:10:35;;;;;;;13.05;9.00;;;3.50;1.00;;;;;;5093694;28;20386;-79
2023/03/06 02:13:01;;;;;;;13.87;8.40;;;3.40;80.50;;;;;;5093218;28;20382;-79
2023/03/06 02:15:28;;;;;;;13.00;8.70;;;3.50;99.90;;;;;;5092160;28;20447;-79
2023/03/06 02:17:54;;;;;;;12.95;8.73;;;3.30;2.30;;;;;;5093014;28;20459;-79
2023/03/06 02:20:30;;;;;;;11.35;8.43;;;3.50;99.90;;;;;;5092825;28;20445;-79
2023/03/06 02:23:32;;;;;;;16.30;10.17;;;3.50;99.90;;;;;;5093149;28;20413;-79
2023/03/06 02:25:59;;;;;;;13.90;9.00;;;3.50;99.90;;;;;;5099668;28;20374;-79
2023/03/06 02:28:25;;;;;;;13.15;9.07;;;3.60;1.00;;;;;;5094645;28;20386;-79
2023/03/06 02:30:53;;;;;;;11.30;8.60;;;3.60;1.00;;;;;;5093783;28;20952;-78
2023/03/06 02:33:21;;;;;;;11.80;9.18;;;3.80;99.90;;;;;;5094101;28;20875;-79
2023/03/06 02:35:53;;;;;;;14.07;9.80;;;3.80;18.50;;;;;;5091850;28;20406;-79
2023/03/06 02:38:22;;;;;;;13.45;9.93;;;3.70;99.90;;;;;;5093670;28;20385;-79
2023/03/06 02:40:51;;;;;;;14.00;10.40;;;3.70;1.00;;;;;;5092091;28;20421;-79
2023/03/06 02:43:22;;;;;;;15.73;10.53;;;3.60;99.90;;;;;;5089781;28;20382;-79
2023/03/06 02:45:49;;;;;;;13.63;10.17;;;3.30;99.90;;;;;;5084972;28;20401;-79
2023/03/06 02:48:16;;;;;;;15.38;10.68;;;3.70;99.90;;;;;;5092168;28;20385;-79
2023/03/06 02:50:43;;;;;;;13.77;10.43;;;3.40;1.00;;;;;;5091826;28;20386;-79
2023/03/06 02:53:11;;;;;;;12.65;9.82;;;3.60;1.00;;;;;;5092862;28;20397;-79
2023/03/06 02:55:36;;;;;;;15.90;10.35;;;3.50;1.00;;;;;;5082836;28;20378;-79
2023/03/06 02:58:02;;;;;;;13.60;9.93;;;3.60;1.00;;;;;;5092999;28;20378;-79
2023/03/06 03:00:29;;;;;;;14.90;9.52;;;3.60;99.90;;;;;;5093151;28;20507;-79
2023/03/06 03:02:54;;;;;;;15.05;9.40;;;3.50;1.00;;;;;;5094105;28;20533;-79
2023/03/06 03:05:20;;;;;;;15.45;10.15;;;3.50;1.00;;;;;;5092841;28;20812;-79
2023/03/06 03:07:46;;;;;;;15.00;10.43;;;3.50;1.00;;;;;;5080633;28;20548;-79
2023/03/06 03:10:12;;;;;;;16.87;10.53;;;3.60;1.00;;;;;;5073785;28;20411;-79
2023/03/06 03:12:38;;;;;;;14.50;10.40;;;3.40;1.00;;;;;;5077229;28;20436;-79
2023/03/06 03:15:04;;;;;;;13.98;10.45;;;3.50;72.50;;;;;;5091431;28;20868;-79
2023/03/06 03:17:30;;;;;;;14.27;9.95;;;3.60;1.00;;;;;;5092324;28;20378;-78
2023/03/06 03:19:55;;;;;;;15.07;10.93;;;3.50;1.00;;;;;;5092242;28;20394;-79
2023/03/06 03:22:21;;;;;;;14.10;10.35;;;3.20;99.90;;;;;;5092411;28;20784;-79
2023/03/06 03:24:46;;;;;;;13.05;10.38;;;3.40;99.90;;;;;;5090133;28;20404;-79
2023/03/06 03:27:13;;;;;;;14.20;10.90;;;3.50;90.70;;;;;;5091702;28;20393;-79
2023/03/06 03:29:39;;;;;;;12.68;10.00;;;3.50;13.90;;;;;;5092683;28;20378;-79
2023/03/06 03:32:05;;;;;;;13.88;10.45;;;3.70;64.30;;;;;;5091760;28;20760;-79
2023/03/06 03:34:30;;;;;;;14.23;10.73;;;3.80;77.10;;;;;;5091899;28;20398;-79
2023/03/06 03:36:56;;;;;;;15.73;11.13;;;3.50;99.90;;;;;;5090678;28;20394;-78
2023/03/06 03:39:21;;;;;;;15.43;11.10;;;3.40;1.70;;;;;;5091816;28;20393;-79
2023/03/06 03:41:47;;;;;;;15.80;10.20;;;3.50;99.90;;;;;;5091927;28;20388;-79
2023/03/06 03:44:12;;;;;;;15.88;10.90;;;3.50;99.90;;;;;;5090813;28;20378;-79
2023/03/06 03:46:38;;;;;;;14.05;9.30;;;3.50;99.90;;;;;;5090015;28;20397;-79
2023/03/06 03:49:04;;;;;;;13.55;9.05;;;3.10;27.20;;;;;;5090135;28;20470;-79
2023/03/06 03:51:30;;;;;;;13.65;9.60;;;3.50;99.90;;;;;;5092110;28;20397;-79
2023/03/06 03:53:56;;;;;;;15.70;9.57;;;3.60;99.90;;;;;;5087651;28;20414;-79
2023/03/06 03:56:23;;;;;;;12.50;9.90;;;3.30;1.00;;;;;;5088636;28;20376;-79
2023/03/06 03:58:49;;;;;;;14.60;9.90;;;3.20;1.00;;;;;;5072348;28;20391;-79
2023/03/06 04:01:15;;;;;;;13.90;9.27;;;3.50;1.00;;;;;;5071851;28;20387;-78
2023/03/06 04:03:40;;;;;;;11.05;8.93;;;3.50;1.00;;;;;;5076846;28;20891;-79
2023/03/06 04:06:06;;;;;;;12.23;9.23;;;3.40;1.00;;;;;;5090024;28;20418;-79
2023/03/06 04:08:32;;;;;;;11.27;9.10;;;3.20;1.00;;;;;;5091330;28;20386;-79
2023/03/06 04:10:57;;;;;;;13.80;10.00;;;3.40;1.00;;;;;;5091778;28;20401;-79
2023/03/06 04:13:23;;;;;;;12.47;9.13;;;3.80;1.00;;;;;;5091791;28;20393;-79
2023/03/06 04:15:51;;;;;;;15.18;8.95;;;3.40;1.00;;;;;;5091440;28;20386;-79
2023/03/06 04:18:18;;;;;;;10.93;8.75;;;3.40;1.00;;;;;;5091499;28;20386;-78
2023/03/06 04:20:44;;;;;;;11.65;8.95;;;2.80;1.00;;;;;;5090997;28;20398;-78
2023/03/06 04:23:10;;;;;;;16.42;11.02;;;3.20;1.00;;;;;;5091607;28;20382;-79
2023/03/06 04:25:35;;;;;;;11.48;8.32;;;2.90;1.00;;;;;;5090821;28;20447;-79
2023/03/06 04:28:01;;;;;;;13.52;9.60;;;3.50;1.00;;;;;;5091356;28;20378;-79
2023/03/06 04:30:27;;;;;;;13.25;9.35;;;3.50;1.00;;;;;;5091399;28;20871;-79
2023/03/06 04:32:52;;;;;;;14.45;10.40;;;3.60;99.90;;;;;;5091767;28;20401;-79
2023/03/06 04:35:18;;;;;;;14.82;10.57;;;3.60;99.90;;;;;;5093520;28;20396;-79
2023/03/06 04:37:44;;;;;;;14.15;10.88;;;;;;;;;;5095811;28;20382;-79
2023/03/06 04:40:31;;;;;;;14.40;9.77;;;3.70;1.00;;;;;;5095461;28;20462;-79
2023/03/06 04:42:58;;;;;;;15.52;10.70;;;3.50;1.00;;;;;;5078208;28;20410;-79
2023/03/06 04:45:25;;;;;;;15.80;11.70;;;3.60;1.00;;;;;;5083527;28;20517;-78
2023/03/06 04:47:50;;;;;;;15.52;11.50;;;3.80;1.00;;;;;;5075268;28;20448;-79
2023/03/06 04:50:17;;;;;;;21.70;13.17;;;3.60;1.00;;;;;;5075143;28;20458;-79
2023/03/06 04:52:43;;;;;;;20.02;14.10;;;3.20;99.90;;;;;;5074026;28;20387;-78
2023/03/06 04:55:12;;;;;;;19.00;13.23;;;3.60;1.00;;;;;;5082528;28;20476;-79
2023/03/06 04:57:39;;;;;;;21.02;14.07;;;3.60;1.00;;;;;;5095328;28;20467;-79
2023/03/06 05:00:08;;;;;;;20.50;14.20;;;3.60;1.00;;;;;;5095122;28;20412;-79
2023/03/06 05:02:35;;;;;;;16.83;11.70;;;3.50;1.00;;;;;;5095289;28;20378;-79
2023/03/06 05:05:01;;;;;;;14.20;10.38;;;3.50;1.00;;;;;;5093765;28;20846;-79
2023/03/06 05:07:27;;;;;;;15.38;10.45;;;3.40;1.00;;;;;;5094934;28;20387;-79
2023/03/06 05:09:52;;;;;;;13.27;9.33;;;3.50;1.00;;;;;;5086465;28;20971;-79
2023/03/06 05:12:18;;;;;;;13.70;10.23;;;3.90;1.00;;;;;;5095258;28;20431;-79
2023/03/06 05:14:43;;;;;;;13.40;10.27;;;3.40;1.00;;;;;;5086234;28;20913;-79
2023/03/06 05:17:09;;;;;;;15.43;10.77;;;3.30;1.00;;;;;;5074979;28;20950;-79
2023/03/06 05:19:35;;;;;;;14.77;10.85;;;3.20;1.00;;;;;;5074510;28;20411;-78
2023/03/06 05:22:01;;;;;;;14.33;9.90;;;2.80;1.00;;;;;;5076547;28;20766;-79
2023/03/06 05:24:26;;;;;;;12.17;10.33;;;3.30;1.00;;;;;;5075214;28;20753;-78
2023/03/06 05:26:52;;;;;;;13.00;9.70;;;3.40;1.00;;;;;;5076772;28;20395;-79
2023/03/06 05:29:17;;;;;;;16.80;10.93;;;3.30;1.00;;;;;;5092961;28;20401;-79
2023/03/06 05:31:43;;;;;;;16.43;10.80;;;3.00;1.00;;;;;;5094552;28;20393;-79
2023/03/06 05:34:12;;;;;;;13.93;10.13;;;3.50;1.00;;;;;;5094265;28;20560;-79
2023/03/06 05:36:38;;;;;;;17.05;11.95;;;3.10;1.00;;;;;;5094335;28;20475;-79
2023/03/06 05:39:04;;;;;;;17.00;10.90;;;3.40;1.00;;;;;;5094257;28;20425;-79
2023/03/06 05:41:29;;;;;;;16.83;11.10;;;3.20;1.00;;;;;;5094344;28;20389;-79
2023/03/06 05:43:55;;;;;;;14.10;10.03;;;3.50;1.00;;;;;;5094179;28;20385;-79
2023/03/06 05:46:21;;;;;;;16.30;10.48;;;3.40;1.00;;;;;;5093070;28;20465;-79
2023/03/06 05:48:47;;;;;;;14.15;9.88;;;3.40;1.00;;;;;;5092941;28;20809;-79
2023/03/06 05:51:12;;;;;;;14.75;10.90;;;3.50;1.00;;;;;;5094512;28;20382;-79
2023/03/06 05:53:38;;;;;;;13.68;10.20;;;3.20;1.00;;;;;;5095195;28;20398;-78
2023/03/06 05:56:07;;;;;;;12.40;9.82;;;3.10;1.00;;;;;;5096907;28;20379;-79
2023/03/06 05:58:34;;;;;;;13.70;10.45;;;3.00;1.00;;;;;;5094231;28;20402;-79
2023/03/06 06:01:10;;;;;;;15.57;10.35;;;3.30;1.00;;;;;;5094676;28;20459;-79
2023/03/06 06:03:36;;;;;;;15.33;10.13;;;3.00;1.00;;;;;;5094452;28;21013;-79
2023/03/06 06:06:05;;;;;;;15.17;10.03;;;3.00;1.00;;;;;;5094091;28;20479;-79
2023/03/06 06:08:32;;;;;;;17.13;10.20;;;3.20;1.00;;;;;;5094256;28;20389;-78
2023/03/06 06:10:57;;;;;;;12.32;9.55;;;3.00;1.00;;;;;;5092980;28;20390;-79
2023/03/06 06:13:23;;;;;;;14.35;10.10;;;2.90;1.00;;;;;;5093782;28;20393;-79
2023/03/06 06:15:48;;;;;;;13.95;9.90;;;2.90;1.00;;;;;;5094011;28;20386;-79
2023/03/06 06:18:14;;;;;;;15.10;10.57;;;2.80;1.00;;;;;;5094019;28;20374;-79
2023/03/06 06:20:39;;;;;;;14.25;9.80;;;3.20;1.00;;;;;;5095028;28;20440;-79
2023/03/06 06:23:05;;;;;;;14.13;9.90;;;3.00;1.00;;;;;;5094152;28;20940;-79
2023/03/06 06:25:31;;;;;;;11.97;9.50;;;2.90;1.00;;;;;;5094072;28;20388;-79
2023/03/06 06:27:56;;;;;;;12.10;9.20;;;3.10;1.00;;;;;;5094343;28;20405;-79
2023/03/06 06:30:22;;;;;;;15.02;10.20;;;3.00;1.00;;;;;;5084638;28;20397;-79
2023/03/06 06:32:48;;;;;;;17.15;9.65;;;3.00;1.00;;;;;;5085633;28;20386;-79
2023/03/06 06:35:14;;;;;;;12.73;9.30;;;3.30;1.00;;;;;;5092706;28;20477;-79
2023/03/06 06:37:39;;;;;;;11.70;8.83;;;3.20;1.00;;;;;;5094024;28;20378;-79
2023/03/06 06:40:05;;;;;;;14.67;9.13;;;3.20;1.00;;;;;;5094196;28;20393;-81
2023/03/06 06:42:31;;;;;;;15.07;10.73;;;3.30;1.00;;;;;;5093813;28;20887;-79
2023/03/06 06:44:57;;;;;;;11.30;9.30;;;3.30;1.00;;;;;;5093888;28;20382;-79
2023/03/06 06:47:22;;;;;;;13.27;9.63;;;3.00;1.00;;;;;;5093759;28;20385;-79
2023/03/06 06:49:52;;;;;;;14.60;9.33;;;3.20;1.00;;;;;;5094328;28;20390;-79
2023/03/06 06:52:18;;;;;;;18.97;12.33;;;3.30;1.00;;;;;;5094320;28;20386;-79
2023/03/06 06:54:44;;;;;;;19.50;13.00;;;3.20;1.00;;;;;;5094277;28;20405;-79
2023/03/06 06:57:11;;;;;;;20.35;14.45;;;3.30;1.00;;;;;;5091806;28;20418;-79
2023/03/06 06:59:37;;;;;;;20.15;14.45;;;3.50;1.00;;;;;;5093273;28;20484;-79
2023/03/06 07:02:02;;;;;;;25.50;15.40;;;3.50;1.00;;;;;;5093166;28;20424;-79
2023/03/06 07:04:28;;;;;;;25.95;16.10;;;3.50;1.00;;;;;;5093010;28;20384;-79
2023/03/06 07:06:57;;;;;;;25.40;15.68;;;3.70;1.00;;;;;;5092457;28;20393;-79
2023/03/06 07:09:23;;;;;;;24.67;15.90;;;3.70;1.00;;;;;;5093263;28;20381;-79
2023/03/06 07:11:49;;;;;;;20.90;14.60;;;3.50;1.00;;;;;;5091547;28;20386;-79
2023/03/06 07:14:14;;;;;;;22.17;14.82;;;3.50;1.00;;;;;;5091742;28;20474;-79
2023/03/06 07:16:40;;;;;;;20.83;15.40;;;3.50;1.00;;;;;;5091932;28;20378;-79
2023/03/06 07:19:07;;;;;;;22.37;15.30;;;3.60;1.00;;;;;;5092403;28;20393;-79
2023/03/06 07:21:32;;;;;;;20.58;14.05;;;3.50;1.00;;;;;;5091029;28;20729;-78
2023/03/06 07:23:58;;;;;;;21.90;14.00;;;3.70;1.00;;;;;;5091769;28;20385;-78
2023/03/06 07:26:26;;;;;;;24.95;15.10;;;3.70;1.00;;;;;;5090372;28;20386;-78
2023/03/06 07:28:52;;;;;;;21.73;15.05;;;3.90;1.00;;;;;;5091807;28;20390;-78
2023/03/06 07:31:20;;;;;;;22.63;14.40;;;3.60;1.00;;;;;;5091946;28;20802;-78
2023/03/06 07:33:46;;;;;;;21.23;14.27;;;3.70;1.00;;;;;;5089721;28;20394;-78
2023/03/06 07:36:12;;;;;;;21.20;15.00;;;3.80;1.00;;;;;;5092416;28;20445;-78
2023/03/06 07:38:38;;;;;;;22.27;15.40;;;3.70;1.00;;;;;;5076506;28;20383;-78
2023/03/06 07:41:04;;;;;;;19.90;14.07;;;3.80;1.00;;;;;;5074184;28;20430;-78
2023/03/06 07:43:30;;;;;;;20.50;14.70;;;3.70;1.00;;;;;;5087584;28;20456;-78
2023/03/06 07:45:57;;;;;;;23.48;15.10;;;3.30;1.00;;;;;;5071709;28;20440;-78
2023/03/06 07:48:22;;;;;;;20.20;13.93;;;3.70;1.00;;;;;;5086915;28;20380;-78
2023/03/06 07:50:56;;;;;;;20.53;14.60;;;3.70;1.00;;;;;;5091152;28;20396;-78
2023/03/06 07:53:23;;;;;;;20.55;14.43;;;3.50;1.00;;;;;;5091229;28;20390;-79
2023/03/06 07:55:49;;;;;;;21.95;14.35;;;3.70;99.90;;;;;;5093380;28;20378;-79
2023/03/06 07:58:14;;;;;;;22.33;14.32;;;3.80;1.00;;;;;;5093296;28;20393;-79
2023/03/06 08:00:40;;;;;;;21.13;14.27;;;3.70;1.00;;;;;;5091855;28;20404;-78
2023/03/06 08:03:05;;;;;;;22.43;13.23;;;3.90;99.90;;;;;;5092319;28;20431;-78
2023/03/06 08:05:31;;;;;;;21.40;13.93;;;3.60;99.90;;;;;;5092035;28;20397;-79
2023/03/06 08:07:56;;;;;;;24.02;14.15;;;4.20;99.90;;;;;;5092224;28;20378;-79
2023/03/06 08:10:22;;;;;;;21.67;15.02;;;3.70;99.90;;;;;;5094077;28;20398;-78
2023/03/06 08:12:47;;;;;;;19.45;14.05;;;3.80;1.00;;;;;;5094968;28;20392;-79
2023/03/06 08:15:13;;;;;;;19.92;14.00;;;3.80;1.00;;;;;;5096606;28;20385;-78
2023/03/06 08:17:39;;;;;;;22.33;15.00;;;3.90;99.90;;;;;;5095515;28;20440;-79
2023/03/06 08:20:05;;;;;;;21.08;13.77;;;3.70;1.00;;;;;;5097067;28;20800;-79
2023/03/06 08:22:33;;;;;;;21.58;13.68;;;4.00;99.90;;;;;;5096299;28;20390;-78
2023/03/06 08:24:58;;;;;;;18.20;12.80;;;4.20;99.90;;;;;;5096636;28;20748;-79
2023/03/06 08:27:24;;;;;;;17.00;11.40;;;4.20;99.90;;;;;;5096200;28;20384;-79
2023/03/06 08:29:49;;;;;;;19.37;12.77;;;4.30;1.00;;;;;;5096690;28;20959;-79
2023/03/06 08:32:15;;;;;;;20.53;13.47;;;4.00;1.00;;;;;;5096158;28;20389;-79
2023/03/06 08:34:41;;;;;;;20.70;13.00;;;4.30;99.90;;;;;;5096387;28;20416;-79
2023/03/06 08:37:07;;;;;;;17.20;12.20;;;3.60;99.90;;;;;;5094634;28;20447;-78
2023/03/06 08:39:32;;;;;;;19.95;11.57;;;4.40;1.00;;;;;;5095760;28;20398;-79
2023/03/06 08:41:58;;;;;;;17.38;12.32;;;4.20;1.00;;;;;;5095787;28;20386;-78
2023/03/06 08:44:23;;;;;;;17.70;11.05;;;4.20;1.00;;;;;;5095850;28;20461;-78
2023/03/06 08:46:49;;;;;;;18.30;11.50;;;4.70;1.00;;;;;;5094978;28;20495;-78
2023/03/06 08:49:14;;;;;;;15.60;11.70;;;4.70;1.00;;;;;;5096015;28;20382;-78
2023/03/06 08:51:41;;;;;;;16.97;11.30;;;4.60;96.60;;;;;;5095439;28;20437;-78
2023/03/06 08:54:07;;;;;;;18.48;11.93;;;4.80;99.90;;;;;;5095865;28;20455;-78
2023/03/06 08:56:33;;;;;;;16.02;12.32;;;4.90;1.00;;;;;;5094438;28;20388;-78
2023/03/06 08:59:00;;;;;;;17.90;12.82;;;4.40;1.00;;;;;;5094440;28;20408;-79
2023/03/06 09:01:29;;;;;;;15.35;12.02;;;4.60;99.90;;;;;;5095762;28;20402;-79
2023/03/06 09:03:58;;;;;;;16.75;11.52;;;4.80;99.90;;;;;;5096028;28;20438;-78
2023/03/06 09:06:25;;;;;;;17.33;12.43;;;5.10;1.00;;;;;;5095703;28;20408;-78
2023/03/06 09:08:52;;;;;;;16.77;11.32;;;4.90;1.00;;;;;;5096151;28;20439;-78
2023/03/06 09:11:18;;;;;;;18.60;12.60;;;4.70;99.90;;;;;;5093940;28;20390;-79
2023/03/06 09:13:44;;;;;;;17.23;12.30;;;5.20;91.40;;;;;;5094408;28;20439;-78
2023/03/06 09:16:10;;;;;;;13.50;11.10;;;5.40;1.00;;;;;;5095517;28;20382;-78
2023/03/06 09:18:36;;;;;;;16.60;12.00;;;5.30;1.00;;;;;;5095632;28;20500;-79
2023/03/06 09:21:03;;;;;;;14.68;10.90;;;5.40;99.90;;;;;;5096530;28;20405;-78
2023/03/06 09:23:28;;;;;;;14.23;11.37;;;5.60;99.90;;;;;;5096868;28;20766;-78
2023/03/06 09:25:56;;;;;;;13.85;10.45;;;5.60;10.00;;;;;;5097277;28;20393;-78
2023/03/06 09:28:22;;;;;;;16.35;10.90;;;5.60;1.00;;;;;;5094363;28;20453;-78
2023/03/06 09:30:48;;;;;;;14.38;10.35;;;5.80;99.90;;;;;;5095752;28;20366;-78
2023/03/06 09:33:14;;;;;;;13.60;10.00;;;5.70;99.90;;;;;;5095734;28;20415;-78
2023/03/06 09:35:49;;;;;;;15.60;10.80;;;5.80;99.90;;;;;;5093953;28;20398;-78
2023/03/06 09:38:15;;;;;;;13.23;9.70;;;5.90;1.00;;;;;;5094922;28;20405;-78
2023/03/06 09:40:56;;;;;;;13.05;9.80;;;5.90;1.00;;;;;;5095015;28;20402;-78
2023/03/06 09:43:34;;;;;;;12.35;9.30;;;6.20;99.90;;;;;;5094881;28;20427;-79
2023/03/06 09:46:00;;;;;;;10.93;8.93;;;5.80;1.00;;;;;;5094438;28;20380;-78
2023/03/06 09:48:41;;;;;;;13.30;9.60;;;6.00;1.00;;;;;;5093622;28;20968;-79
2023/03/06 09:51:13;;;;;;;11.20;8.70;;;5.40;1.00;;;;;;5095078;28;20401;-78
2023/03/06 09:53:51;;;;;;;10.75;8.50;;;6.10;1.00;;;;;;5094905;28;20791;-78
2023/03/06 09:56:19;;;;;;;10.65;7.80;;;6.50;1.00;;;;;;5092919;28;20418;-78
2023/03/06 09:58:53;;;;;;;13.13;8.88;;;6.90;1.00;;;;;;5093487;28;20430;-78
2023/03/06 10:01:26;;;;;;;11.35;9.27;;;6.30;1.00;;;;;;5094800;28;20954;-78
2023/03/06 10:04:13;;;;;;;11.20;8.15;;;6.60;1.00;;;;;;5094992;28;20492;-78
2023/03/06 10:06:46;;;;;;;12.75;8.57;;;6.40;1.00;;;;;;5093215;28;20409;-78
2023/03/06 10:09:30;;;;;;;9.32;7.35;;;6.40;1.00;;;;;;5094917;28;20381;-78
2023/03/06 10:12:01;;;;;;;11.60;7.93;;;6.20;1.00;;;;;;5096898;28;20447;-78
2023/03/06 10:14:44;;;;;;;10.38;8.77;;;6.30;99.90;;;;;;5093672;28;20879;-78
2023/03/06 10:17:16;;;;;;;10.63;8.15;;;6.20;1.00;;;;;;5094790;28;20379;-78
2023/03/06 10:19:42;;;;;;;11.60;8.00;;;6.50;1.00;;;;;;5092836;28;20424;-78
2023/03/06 10:22:29;;;;;;;11.15;7.90;;;6.60;1.00;;;;;;5094219;28;20374;-78
2023/03/06 10:25:03;;;;;;;10.95;8.30;;;6.70;1.00;;;;;;5094098;28;20878;-78
2023/03/06 10:27:35;;;;;;;11.25;8.60;;;6.70;99.90;;;;;;5094059;28;20374;-78
2023/03/06 10:30:09;;;;;;;10.30;8.15;;;6.80;99.90;;;;;;5094121;28;20455;-79
2023/03/06 10:32:53;;;;;;;13.05;8.40;;;6.70;99.90;;;;;;5092607;28;20468;-78
2023/03/06 10:35:30;;;;;;;11.35;8.18;;;6.80;1.00;;;;;;5092647;28;20394;-78
2023/03/06 10:38:17;;;;;;;10.98;8.02;;;7.10;1.00;;;;;;5092539;28;20448;-78
2023/03/06 10:41:06;;;;;;;13.88;8.57;;;7.20;99.90;;;;;;5093801;28;20852;-78
2023/03/06 10:43:40;;;;;;;10.80;9.00;;;7.30;99.90;;;;;;5093329;28;20400;-78
2023/03/06 10:46:07;;;;;;;11.77;8.90;;;7.20;1.00;;;;;;5092909;28;20393;-78
2023/03/06 10:48:35;;;;;;;11.52;9.35;;;6.60;99.90;;;;;;5093085;28;20378;-78
2023/03/06 10:51:22;;;;;;;11.40;8.75;;;8.90;99.90;;;;;;5093189;28;20427;-78
2023/03/06 10:53:55;;;;;;;10.80;8.70;;;7.00;99.90;;;;;;5099015;28;20382;-78
2023/03/06 10:56:39;;;;;;;10.80;8.90;;;7.30;1.00;;;;;;5099122;28;20398;-78
2023/03/06 10:59:17;;;;;;;11.25;9.00;;;7.20;1.00;;;;;;5093536;28;20431;-79
2023/03/06 11:01:51;;;;;;;11.02;8.50;;;7.10;1.00;;;;;;5093461;28;20401;-79
2023/03/06 11:04:24;;;;;;;11.63;9.07;;;6.90;99.90;;;;;;5093640;28;20382;-78
2023/03/06 11:07:16;;;;;;;11.32;7.82;;;7.20;99.90;;;;;;5090769;28;20401;-78
2023/03/06 11:09:57;;;;;;;10.52;7.70;;;7.40;99.90;;;;;;5091778;28;20409;-78
2023/03/06 11:12:31;;;;;;;10.70;9.32;;;7.00;99.90;;;;;;5092817;28;20381;-78
2023/03/06 11:15:05;;;;;;;13.35;8.75;;;7.30;1.00;;;;;;5094319;28;20381;-78
2023/03/06 11:17:32;;;;;;;11.23;8.57;;;7.30;1.00;;;;;;5090835;28;20892;-78
2023/03/06 11:20:18;;;;;;;11.43;8.90;;;7.10;1.00;;;;;;5092033;28;20405;-78
2023/03/06 11:23:16;;;;;;;13.30;9.30;;;7.30;1.00;;;;;;5092223;28;20386;-78
2023/03/06 11:25:55;;;;;;;11.18;8.27;;;7.40;99.90;;;;;;5092008;28;20401;-78
2023/03/06 11:28:36;;;;;;;10.70;8.27;;;7.20;99.90;;;;;;5091822;28;20409;-78
2023/03/06 11:31:11;;;;;;;10.63;7.78;;;7.10;99.90;;;;;;5093937;28;20485;-78
2023/03/06 11:33:52;;;;;;;10.15;8.48;;;7.00;1.00;;;;;;5092512;28;20393;-78
2023/03/06 11:36:37;;;;;;;10.60;8.50;;;6.90;99.90;;;;;;5091965;28;20382;-78
2023/03/06 11:39:18;;;;;;;10.48;7.70;;;7.20;99.90;;;;;;5090527;28;20431;-78
2023/03/06 11:42:02;;;;;;;12.13;8.77;;;7.20;99.90;;;;;;5071514;28;20384;-78
2023/03/06 11:44:46;;;;;;;9.10;7.80;;;7.50;99.90;;;;;;5085283;28;20382;-77
2023/03/06 11:47:24;;;;;;;10.18;7.20;;;7.10;99.90;;;;;;5089880;28;20443;-78
2023/03/06 11:50:05;;;;;;;9.68;6.90;;;7.10;99.90;;;;;;5090321;28;20913;-77
2023/03/06 11:52:59;;;;;;;9.23;7.38;;;7.60;99.90;;;;;;5090553;28;20427;-78
2023/03/06 11:55:45;;;;;;;10.40;7.90;;;7.80;99.90;;;;;;5091534;28;20381;-78
2023/03/06 11:58:29;;;;;;;10.37;7.60;;;7.40;99.90;;;;;;5091586;28;20421;-77
2023/03/06 12:01:05;;;;;;;8.10;6.60;;;7.60;99.90;;;;;;5090852;28;20907;-77
2023/03/06 12:03:43;;;;;;;7.22;5.97;;;7.50;99.90;;;;;;5091575;28;20382;-77
2023/03/06 12:06:28;;;;;;;8.10;6.07;;;7.40;99.90;;;;;;5091514;28;20366;-78
2023/03/06 12:09:12;;;;;;;7.40;6.60;;;7.00;99.90;;;;;;5090684;28;20382;-80
2023/03/06 12:12:09;;;;;;;8.27;6.20;;;7.90;99.90;;;;;;5092609;28;20396;-79
2023/03/06 12:14:49;;;;;;;8.80;6.57;;;7.60;99.90;;;;;;5091491;28;20888;-78
2023/03/06 12:17:50;;;;;;;7.38;5.70;;;7.50;99.90;;;;;;5093278;28;20378;-79
2023/03/06 12:20:31;;;;;;;8.20;6.60;;;7.30;99.90;;;;;;5072181;28;20445;-78
2023/03/06 12:23:24;;;;;;;7.93;6.60;;;7.80;99.90;;;;;;5071297;28;20386;-79
2023/03/06 12:26:21;;;;;;;7.70;6.43;;;7.60;99.90;;;;;;5070754;28;20865;-79
2023/03/06 12:29:12;;;;;;;6.93;5.97;;;7.60;99.90;;;;;;5070340;28;20848;-79
2023/03/06 12:31:44;;;;;;;6.65;5.47;;;7.80;99.90;;;;;;5075939;28;20740;-80
2023/03/06 12:34:32;;;;;;;7.45;5.93;;;7.90;99.90;;;;;;5092445;28;20389;-79
2023/03/06 12:37:31;;;;;;;8.43;5.82;;;7.90;99.90;;;;;;5092194;28;20485;-79
2023/03/06 12:40:21;;;;;;;7.05;5.60;;;7.80;99.90;;;;;;5093848;28;20409;-79
2023/03/06 12:43:05;;;;;;;7.22;5.82;;;7.40;99.90;;;;;;5092216;28;20404;-80
2023/03/06 12:45:33;;;;;;;7.60;5.93;;;7.40;99.90;;;;;;5092300;28;20377;-79
2023/03/06 12:48:00;;;;;;;6.80;6.10;;;8.20;99.90;;;;;;5094146;28;20822;-79
2023/03/06 12:50:31;;;;;;;7.65;5.85;;;6.80;99.90;;;;;;5093908;28;20394;-79
2023/03/06 12:53:06;;;;;;;6.93;6.10;;;7.10;99.90;;;;;;5092568;28;20381;-79
2023/03/06 12:55:43;;;;;;;7.57;5.70;;;7.20;99.90;;;;;;5091629;28;20903;-79
2023/03/06 12:58:29;;;;;;;9.13;5.50;;;7.10;99.90;;;;;;5088693;28;20398;-79
2023/03/06 13:01:04;;;;;;;6.73;5.00;;;7.20;99.90;;;;;;5079139;28;20836;-79
2023/03/06 13:03:53;;;;;;;8.40;6.28;;;7.70;99.90;;;;;;5090648;28;20807;-79